Time;durP1;ratioP1;P1;durP2;ratioP2;P2;SDS_P1;SDS_P2;PMS_P1;PMS_P2;Temp;Humidity;BMP_temperature;BMP_pressure;BME280_temperature;BME280_humidity;BME280_pressure;Samples;Min_cycle;Max_cycle;Signal;HPM_P1;HPM_P2
2022/09/27 00:00:44;;;;;;;12.00;9.20;;;;;;;12.57;100.00;98766.99;1740721;81;21142;-74
2022/09/27 00:03:12;;;;;;;17.30;10.93;;;;;;;12.64;100.00;98758.58;1720489;83;21566;-73
2022/09/27 00:05:40;;;;;;;11.18;9.20;;;;;;;12.69;100.00;98758.52;1698321;83;22234;-73
2022/09/27 00:08:08;;;;;;;10.30;9.28;;;;;;;12.74;100.00;98754.96;1705500;84;21029;-72
2022/09/27 00:10:35;;;;;;;14.95;11.38;;;;;;;12.69;100.00;98753.13;1705475;84;21054;-71
2022/09/27 00:13:02;;;;;;;14.40;9.55;;;;;;;12.61;100.00;98737.58;1705946;82;21814;-78
2022/09/27 00:15:29;;;;;;;12.85;8.95;;;;;;;12.57;100.00;98746.77;1735453;81;21041;-77
2022/09/27 00:17:56;;;;;;;12.13;10.95;;;;;;;12.56;100.00;98745.17;1740935;82;21002;-75
2022/09/27 00:20:22;;;;;;;12.15;10.85;;;;;;;12.59;100.00;98747.83;1739929;81;21495;-76
2022/09/27 00:22:49;;;;;;;14.18;11.22;;;;;;;12.65;100.00;98746.70;1724672;81;21109;-77
2022/09/27 00:25:17;;;;;;;16.37;11.90;;;;;;;12.70;100.00;98746.64;1717178;83;21276;-79
2022/09/27 00:27:43;;;;;;;17.40;11.00;;;;;;;12.72;100.00;98744.45;1693875;83;21049;-70
2022/09/27 00:30:12;;;;;;;16.75;11.55;;;;;;;12.69;100.00;98738.28;1705674;83;21053;-69
2022/09/27 00:32:40;;;;;;;13.72;10.23;;;;;;;12.64;100.00;98744.55;1705689;84;20977;-70
2022/09/27 00:35:08;;;;;;;11.12;9.03;;;;;;;12.68;100.00;98740.72;1705726;82;21105;-71
2022/09/27 00:37:35;;;;;;;13.58;9.80;;;;;;;12.66;100.00;98741.56;1690909;83;21857;-73
2022/09/27 00:40:03;;;;;;;10.88;9.78;;;;;;;12.61;100.00;98733.53;1691052;84;21005;-71
2022/09/27 00:42:30;;;;;;;9.10;8.28;;;;;;;12.57;100.00;98729.23;1674307;83;21511;-74
2022/09/27 00:45:09;;;;;;;11.57;9.80;;;;;;;12.60;100.00;98721.13;1720350;83;21570;-73
2022/09/27 00:47:42;;;;;;;9.35;8.40;;;;;;;12.62;100.00;98713.53;1720137;83;21018;-74
2022/09/27 00:50:19;;;;;;;12.83;11.73;;;;;;;12.60;100.00;98711.14;1748386;81;21923;-73
2022/09/27 00:53:21;;;;;;;12.10;10.98;;;;;;;12.58;100.00;98709.80;1736360;82;22359;-72
2022/09/27 00:55:55;;;;;;;13.58;12.18;;;;;;;12.62;100.00;98694.11;1723263;82;21231;-72
2022/09/27 00:58:29;;;;;;;12.13;10.95;;;;;;;12.60;100.00;98702.25;1744886;80;20939;-72
2022/09/27 01:00:59;;;;;;;11.70;10.43;;;;;;;12.58;100.00;98694.43;1720074;82;21073;-72
2022/09/27 01:03:44;;;;;;;11.15;9.90;;;;;;;12.57;100.00;98700.10;1747948;81;21235;-72
2022/09/27 01:06:11;;;;;;;13.18;11.03;;;;;;;12.57;100.00;98690.12;1748262;81;20958;-71
2022/09/27 01:08:38;;;;;;;12.35;10.30;;;;;;;12.54;100.00;98680.45;1698277;83;20989;-72
2022/09/27 01:11:36;;;;;;;10.85;9.60;;;;;;;12.56;100.00;98681.80;1744545;81;21005;-72
2022/09/27 01:14:29;;;;;;;16.35;10.58;;;;;;;12.60;100.00;98673.38;1739103;82;21032;-72
2022/09/27 01:17:27;;;;;;;12.47;11.18;;;;;;;12.65;100.00;98675.22;1745278;80;21135;-71
2022/09/27 01:20:05;;;;;;;10.53;9.55;;;;;;;12.62;100.00;98675.23;1745514;81;21067;-70
2022/09/27 01:22:54;;;;;;;12.40;11.08;;;;;;;12.52;100.00;98671.84;1765694;80;21526;-72
2022/09/27 01:25:51;;;;;;;13.35;9.85;;;;;;;12.41;100.00;98673.06;1697193;82;21530;-71
2022/09/27 01:28:35;;;;;;;12.30;10.38;;;;;;;12.40;100.00;98667.41;1679275;84;21031;-72
2022/09/27 01:31:07;;;;;;;11.78;9.88;;;;;;;12.40;100.00;98666.05;1713106;82;21196;-72
2022/09/27 01:34:09;;;;;;;11.45;10.38;;;;;;;12.44;100.00;98664.39;1742410;81;21018;-71
2022/09/27 01:36:59;;;;;;;12.80;11.50;;;;;;;12.41;100.00;98651.48;1724269;81;21029;-71
2022/09/27 01:39:49;;;;;;;11.85;10.10;;;;;;;12.40;100.00;98643.14;1745549;80;21775;-69
2022/09/27 01:42:31;;;;;;;12.20;10.98;;;;;;;12.49;100.00;98641.41;1711103;82;21109;-72
2022/09/27 01:45:20;;;;;;;13.30;11.53;;;;;;;12.54;100.00;98635.95;1718946;82;21149;-72
2022/09/27 01:47:59;;;;;;;14.60;11.75;;;;;;;12.52;100.00;98632.19;1743542;80;21551;-71
2022/09/27 01:50:57;;;;;;;11.68;10.58;;;;;;;12.50;100.00;98629.53;1739638;82;21050;-71
2022/09/27 01:53:37;;;;;;;12.68;11.57;;;;;;;12.42;100.00;98630.19;1730902;81;21061;-73
2022/09/27 01:56:20;;;;;;;12.68;11.38;;;;;;;12.34;100.00;98628.09;1706370;82;21182;-72
2022/09/27 01:58:53;;;;;;;15.00;11.30;;;;;;;12.30;100.00;98627.88;1718770;82;21159;-72
2022/09/27 02:01:20;;;;;;;12.20;11.03;;;;;;;12.32;100.00;98619.52;1733599;81;21117;-71
2022/09/27 02:03:49;;;;;;;12.33;10.95;;;;;;;12.36;100.00;98616.49;1728971;82;21032;-70
2022/09/27 02:06:29;;;;;;;12.47;11.28;;;;;;;12.36;100.00;98614.61;1711687;82;21068;-72
2022/09/27 02:09:23;;;;;;;19.60;12.60;;;;;;;12.43;100.00;98616.39;1731179;81;21057;-72
2022/09/27 02:12:05;;;;;;;12.85;11.63;;;;;;;12.46;100.00;98618.53;1703736;81;21504;-73
2022/09/27 02:14:43;;;;;;;19.15;13.03;;;;;;;12.45;100.00;98613.41;1740123;81;21033;-72
2022/09/27 02:17:46;;;;;;;16.93;12.70;;;;;;;12.45;100.00;98608.02;1740301;82;21104;-72
2022/09/27 02:20:35;;;;;;;14.90;11.73;;;;;;;12.46;100.00;98607.74;1700459;82;21629;-71
2022/09/27 02:23:20;;;;;;;13.85;12.40;;;;;;;12.38;100.00;98610.25;1709293;83;21323;-72
2022/09/27 02:26:02;;;;;;;13.15;11.95;;;;;;;12.25;100.00;98619.84;1705790;84;21139;-72
2022/09/27 02:28:44;;;;;;;14.30;12.75;;;;;;;12.20;100.00;98615.31;1721561;82;21085;-71
2022/09/27 02:31:11;;;;;;;14.60;12.95;;;;;;;12.19;100.00;98612.35;1696810;83;21588;-71
2022/09/27 02:33:55;;;;;;;13.62;12.20;;;;;;;12.24;100.00;98611.49;1704594;84;21026;-72
2022/09/27 02:36:22;;;;;;;19.35;13.03;;;;;;;12.30;100.00;98619.79;1719109;82;21034;-72
2022/09/27 02:38:50;;;;;;;17.35;14.05;;;;;;;12.39;100.00;98608.63;1719670;82;21096;-72
2022/09/27 02:41:19;;;;;;;15.68;11.70;;;;;;;12.45;100.00;98608.83;1720279;83;21054;-71
2022/09/27 02:43:51;;;;;;;13.90;12.40;;;;;;;12.45;100.00;98601.28;1719749;83;20966;-71
2022/09/27 02:46:27;;;;;;;15.13;13.53;;;;;;;12.43;100.00;98600.21;1721044;83;20990;-72
2022/09/27 02:49:20;;;;;;;13.53;12.20;;;;;;;12.39;100.00;98593.80;1694695;83;21017;-74
2022/09/27 02:52:15;;;;;;;14.63;13.10;;;;;;;12.35;100.00;98581.98;1646611;86;22250;-73
2022/09/27 02:55:08;;;;;;;17.57;11.35;;;;;;;12.34;100.00;98580.38;1667599;84;21774;-73
2022/09/27 02:58:12;;;;;;;15.55;13.95;;;;;;;12.30;100.00;98579.34;1746503;80;21464;-72
2022/09/27 03:01:04;;;;;;;16.02;12.65;;;;;;;12.24;100.00;98586.69;1745201;82;21542;-72
2022/09/27 03:04:04;;;;;;;21.70;15.55;;;;;;;12.31;100.00;98582.31;1746916;81;21069;-71
2022/09/27 03:06:31;;;;;;;19.70;13.68;;;;;;;12.33;100.00;98573.37;1680681;81;23047;-72
2022/09/27 03:08:58;;;;;;;25.57;16.57;;;;;;;12.33;100.00;98572.56;1717485;82;21073;-72
2022/09/27 03:11:26;;;;;;;18.30;15.30;;;;;;;12.31;100.00;98572.88;1703484;82;21004;-71
2022/09/27 03:13:53;;;;;;;21.70;16.45;;;;;;;12.35;100.00;98569.05;1748011;80;21022;-72
2022/09/27 03:16:20;;;;;;;17.00;14.50;;;;;;;12.35;100.00;98562.30;1718321;82;21082;-72
2022/09/27 03:19:00;;;;;;;17.52;14.43;;;;;;;12.40;100.00;98567.64;1748535;80;21030;-72
2022/09/27 03:21:45;;;;;;;14.68;13.15;;;;;;;12.40;100.00;98571.68;1720060;83;20946;-71
2022/09/27 03:24:12;;;;;;;16.25;14.65;;;;;;;12.34;100.00;98563.39;1718216;83;21077;-72
2022/09/27 03:26:39;;;;;;;16.12;14.58;;;;;;;12.30;100.00;98565.06;1718085;83;21506;-71
2022/09/27 03:29:07;;;;;;;16.42;14.83;;;;;;;12.30;100.00;98552.93;1718242;83;21093;-73
2022/09/27 03:31:35;;;;;;;20.60;15.10;;;;;;;12.34;100.00;98549.91;1718240;83;21148;-72
2022/09/27 03:34:22;;;;;;;14.53;12.95;;;;;;;12.39;100.00;98549.84;1721703;80;21009;-72
2022/09/27 03:36:49;;;;;;;18.57;15.63;;;;;;;12.49;100.00;98547.83;1698895;83;21013;-73
2022/09/27 03:39:16;;;;;;;15.18;13.68;;;;;;;12.48;100.00;98550.27;1747996;82;20998;-72
2022/09/27 03:41:43;;;;;;;18.20;14.73;;;;;;;12.51;100.00;98556.98;1717237;83;21026;-72
2022/09/27 03:44:10;;;;;;;16.97;14.15;;;;;;;12.44;100.00;98551.94;1635416;87;22391;-73
2022/09/27 03:46:38;;;;;;;16.77;15.00;;;;;;;12.39;100.00;98549.84;1647364;87;21064;-74
2022/09/27 03:49:05;;;;;;;15.93;12.25;;;;;;;12.38;100.00;98549.58;1653471;83;21059;-71
2022/09/27 03:51:31;;;;;;;16.10;13.80;;;;;;;12.39;100.00;98547.15;1748279;82;21544;-70
2022/09/27 03:53:58;;;;;;;18.20;15.55;;;;;;;12.37;100.00;98549.35;1748374;82;21097;-71
2022/09/27 03:56:25;;;;;;;15.72;14.20;;;;;;;12.41;100.00;98544.98;1729495;80;21276;-71
2022/09/27 03:58:52;;;;;;;16.32;13.40;;;;;;;12.45;100.00;98538.72;1719872;83;21038;-70
2022/09/27 04:01:19;;;;;;;18.73;14.98;;;;;;;12.52;100.00;98540.49;1748397;82;21029;-71
2022/09/27 04:03:45;;;;;;;18.67;16.65;;;;;;;12.54;100.00;98538.32;1719984;83;21065;-71
2022/09/27 04:06:14;;;;;;;17.82;16.00;;;;;;;12.60;100.00;98546.61;1742885;81;21110;-71
2022/09/27 04:08:43;;;;;;;31.77;25.32;;;;;;;12.64;100.00;98539.53;1748557;82;21123;-70
2022/09/27 04:11:11;;;;;;;23.07;17.67;;;;;;;12.68;100.00;98539.74;1748090;80;20958;-69
2022/09/27 04:13:39;;;;;;;17.15;15.28;;;;;;;12.71;100.00;98549.94;1719894;83;21029;-70
2022/09/27 04:16:06;;;;;;;19.17;16.60;;;;;;;12.72;100.00;98548.86;1745911;82;21534;-70
2022/09/27 04:18:42;;;;;;;17.02;15.32;;;;;;;12.75;100.00;98544.78;1738255;82;21060;-71
2022/09/27 04:21:17;;;;;;;19.57;15.60;;;;;;;12.74;100.00;98541.28;1724784;82;21757;-70
2022/09/27 04:23:45;;;;;;;20.08;14.73;;;;;;;12.75;100.00;98553.69;1677343;83;20929;-71
2022/09/27 04:26:14;;;;;;;20.70;16.00;;;;;;;12.78;100.00;98549.05;1650259;84;21026;-71
2022/09/27 04:28:52;;;;;;;20.77;17.10;;;;;;;12.83;100.00;98545.47;1646003;86;21041;-70
2022/09/27 04:31:19;;;;;;;19.27;17.20;;;;;;;12.88;100.00;98539.45;1665572;83;21082;-72
2022/09/27 04:33:58;;;;;;;17.32;15.35;;;;;;;12.96;100.00;98540.13;1689323;84;21858;-70
2022/09/27 04:36:27;;;;;;;19.57;16.87;;;;;;;12.99;100.00;98530.13;1748664;82;21017;-68
2022/09/27 04:39:01;;;;;;;26.62;14.73;;;;;;;12.90;100.00;98535.13;1746000;80;20974;-72
2022/09/27 04:41:28;;;;;;;22.82;18.25;;;;;;;12.78;100.00;98539.60;1720278;83;21578;-73
2022/09/27 04:43:56;;;;;;;19.82;15.13;;;;;;;12.68;100.00;98533.00;1754127;81;20978;-69
2022/09/27 04:46:23;;;;;;;25.23;15.50;;;;;;;12.64;100.00;98534.68;1748157;82;21117;-71
2022/09/27 04:48:50;;;;;;;18.07;16.27;;;;;;;12.63;100.00;98525.78;1705245;83;21664;-71
2022/09/27 04:51:18;;;;;;;16.90;15.10;;;;;;;12.70;100.00;98526.78;1701435;84;21050;-69
2022/09/27 04:53:46;;;;;;;24.23;15.53;;;;;;;12.72;100.00;98522.42;1698328;82;21032;-68
2022/09/27 04:56:13;;;;;;;18.07;16.17;;;;;;;12.71;100.00;98517.57;1716365;83;20991;-69
2022/09/27 04:58:41;;;;;;;27.50;17.23;;;;;;;12.72;100.00;98515.13;1715035;82;21213;-69
2022/09/27 05:01:08;;;;;;;16.25;14.45;;;;;;;12.75;100.00;98511.88;1715990;83;21050;-70
2022/09/27 05:03:40;;;;;;;19.42;17.10;;;;;;;12.83;100.00;98511.20;1713615;83;20966;-71
2022/09/27 05:06:12;;;;;;;19.77;16.27;;;;;;;12.80;100.00;98509.64;1716199;83;21118;-71
2022/09/27 05:08:40;;;;;;;17.45;15.75;;;;;;;12.75;100.00;98500.27;1716019;83;21053;-71
2022/09/27 05:11:19;;;;;;;23.10;17.25;;;;;;;12.74;100.00;98506.22;1716084;82;21146;-73
2022/09/27 05:14:05;;;;;;;22.20;17.82;;;;;;;12.73;100.00;98503.25;1639109;87;21101;-70
2022/09/27 05:16:35;;;;;;;24.82;18.57;;;;;;;12.75;100.00;98506.48;1610400;89;21099;-73
2022/09/27 05:19:06;;;;;;;20.53;16.13;;;;;;;12.75;100.00;98499.73;1650065;84;21019;-73
2022/09/27 05:21:43;;;;;;;20.77;16.60;;;;;;;12.72;100.00;98502.19;1677768;84;21316;-69
2022/09/27 05:24:11;;;;;;;21.82;17.25;;;;;;;12.73;100.00;98497.86;1697296;84;21571;-72
2022/09/27 05:26:39;;;;;;;27.37;20.40;;;;;;;12.72;100.00;98498.95;1697067;84;21579;-70
2022/09/27 05:29:05;;;;;;;35.50;19.92;;;;;;;12.72;100.00;98502.19;1697304;84;21055;-71
2022/09/27 05:31:32;;;;;;;25.48;17.67;;;;;;;12.77;100.00;98506.97;1697544;83;21030;-70
2022/09/27 05:33:59;;;;;;;30.00;19.25;;;;;;;12.86;100.00;98494.95;1695444;84;21043;-71
2022/09/27 05:36:34;;;;;;;20.62;18.50;;;;;;;12.91;100.00;98492.98;1696915;84;21202;-73
2022/09/27 05:39:01;;;;;;;26.62;18.75;;;;;;;13.01;100.00;98500.92;1697479;83;21051;-72
2022/09/27 05:41:30;;;;;;;25.60;20.65;;;;;;;13.00;100.00;98495.27;1697135;84;21071;-70
2022/09/27 05:43:58;;;;;;;28.90;18.55;;;;;;;12.95;100.00;98504.79;1697002;84;21251;-71
2022/09/27 05:46:25;;;;;;;28.05;19.82;;;;;;;12.95;100.00;98505.36;1697412;84;21114;-71
2022/09/27 05:48:52;;;;;;;29.15;21.30;;;;;;;12.95;100.00;98502.66;1694554;83;21147;-71
2022/09/27 05:51:20;;;;;;;23.98;19.87;;;;;;;12.97;100.00;98503.96;1711034;83;21179;-70
2022/09/27 05:53:46;;;;;;;21.57;18.57;;;;;;;13.04;100.00;98506.30;1715624;82;21144;-71
2022/09/27 05:56:21;;;;;;;25.68;18.92;;;;;;;13.08;100.00;98512.16;1705335;82;21104;-70
2022/09/27 05:58:52;;;;;;;34.75;23.60;;;;;;;13.10;100.00;98503.74;1685162;83;21085;-70
2022/09/27 06:01:19;;;;;;;28.62;19.80;;;;;;;13.08;100.00;98507.30;1686340;83;21100;-70
2022/09/27 06:04:04;;;;;;;32.05;22.27;;;;;;;13.16;100.00;98499.91;1732359;81;21042;-70
2022/09/27 06:06:39;;;;;;;29.67;22.25;;;;;;;13.17;100.00;98499.36;1741814;82;21113;-71
2022/09/27 06:09:12;;;;;;;34.18;23.57;;;;;;;13.20;100.00;98501.45;1737003;81;20939;-70
2022/09/27 06:11:42;;;;;;;38.17;27.45;;;;;;;13.17;100.00;98502.86;1734957;82;20983;-73
2022/09/27 06:14:14;;;;;;;36.53;26.80;;;;;;;13.16;100.00;98500.45;1719925;83;22397;-70
2022/09/27 06:16:45;;;;;;;34.85;24.20;;;;;;;13.15;100.00;98499.64;1710526;83;21593;-69
2022/09/27 06:19:12;;;;;;;31.33;25.08;;;;;;;13.17;100.00;98504.21;1719864;82;20969;-69
2022/09/27 06:21:39;;;;;;;33.10;22.30;;;;;;;13.16;100.00;98505.30;1707827;81;20997;-71
2022/09/27 06:24:07;;;;;;;30.15;24.90;;;;;;;13.16;100.00;98505.30;1739829;81;21022;-68
2022/09/27 06:26:36;;;;;;;32.48;23.62;;;;;;;13.17;100.00;98508.27;1719425;82;21237;-69
2022/09/27 06:29:04;;;;;;;34.05;23.00;;;;;;;13.18;100.00;98505.82;1723288;82;21000;-68
2022/09/27 06:31:33;;;;;;;32.42;24.72;;;;;;;13.19;100.00;98507.40;1720470;83;21375;-69
2022/09/27 06:34:08;;;;;;;44.25;24.85;;;;;;;13.17;100.00;98500.70;1717926;83;21116;-69
2022/09/27 06:36:35;;;;;;;37.93;27.13;;;;;;;13.19;100.00;98499.87;1720554;83;21101;-68
2022/09/27 06:39:02;;;;;;;39.05;28.38;;;;;;;13.17;100.00;98493.95;1711917;82;22110;-68
2022/09/27 06:41:47;;;;;;;32.85;23.47;;;;;;;13.13;100.00;98498.34;1720631;83;20970;-74
2022/09/27 06:44:23;;;;;;;34.00;20.70;;;;;;;13.13;100.00;98497.00;1720784;83;21033;-68
2022/09/27 06:47:00;;;;;;;28.02;21.23;;;;;;;13.13;100.00;98499.70;1620634;87;21104;-71
2022/09/27 06:49:46;;;;;;;29.32;21.02;;;;;;;13.12;100.00;98502.14;1699553;82;21154;-72
2022/09/27 06:52:15;;;;;;;36.55;20.85;;;;;;;13.14;100.00;98500.73;1690925;82;21217;-72
2022/09/27 06:54:42;;;;;;;37.17;21.52;;;;;;;13.16;100.00;98497.20;1728844;81;20975;-71
2022/09/27 06:57:09;;;;;;;48.40;27.07;;;;;;;13.19;100.00;98499.87;1740688;82;21009;-74
2022/09/27 07:02:40;;;;;;;47.55;25.25;;;;;;;13.26;100.00;98511.08;1727034;82;21019;-70
2022/09/27 07:05:11;;;;;;;39.90;24.25;;;;;;;13.28;100.00;98504.30;1740103;82;21774;-70
2022/09/27 07:07:42;;;;;;;37.45;23.70;;;;;;;13.31;100.00;98492.90;1719876;83;21484;-72
2022/09/27 07:10:10;;;;;;;42.53;23.10;;;;;;;13.36;100.00;98494.16;1716868;83;21005;-72
2022/09/27 07:12:38;;;;;;;39.88;23.52;;;;;;;13.41;100.00;98487.32;1705633;83;21065;-70
2022/09/27 07:15:05;;;;;;;38.73;23.90;;;;;;;13.45;100.00;98486.97;1717378;82;20982;-71
2022/09/27 07:17:34;;;;;;;42.27;25.23;;;;;;;13.45;100.00;98482.92;1740684;82;21119;-70
2022/09/27 07:20:02;;;;;;;54.18;27.30;;;;;;;13.46;100.00;98474.27;1739351;81;21010;-73
2022/09/27 07:22:29;;;;;;;40.38;26.05;;;;;;;13.49;100.00;98473.12;1735070;81;21637;-78
2022/09/27 07:24:58;;;;;;;56.02;30.02;;;;;;;13.57;100.00;98472.19;1708610;82;21082;-70
2022/09/27 07:27:25;;;;;;;47.27;29.57;;;;;;;13.54;100.00;98476.27;1711877;83;21592;-71
2022/09/27 07:29:53;;;;;;;45.52;26.35;;;;;;;13.54;100.00;98474.92;1738495;81;21548;-70
2022/09/27 07:32:20;;;;;;;44.50;27.98;;;;;;;13.63;100.00;98476.37;1740546;82;20946;-72
2022/09/27 07:34:47;;;;;;;56.77;28.52;;;;;;;13.69;100.00;98481.94;1740710;82;21046;-70
2022/09/27 07:37:14;;;;;;;51.33;28.57;;;;;;;13.72;100.00;98482.68;1718209;81;21043;-72
2022/09/27 07:39:41;;;;;;;63.40;32.08;;;;;;;13.73;100.00;98482.39;1708772;82;21104;-70
2022/09/27 07:42:10;;;;;;;51.48;28.40;;;;;;;13.77;100.00;98481.23;1735413;80;50471;-73
2022/09/27 07:44:38;;;;;;;58.30;29.87;;;;;;;13.85;100.00;98483.26;1738657;81;32878;-68
2022/09/27 07:47:09;;;;;;;87.10;38.98;;;;;;;13.92;100.00;98476.88;1738708;82;21051;-70
2022/09/27 07:49:53;;;;;;;;;;;;;;;13.95;100.00;98477.66;1706526;82;20983;-69
2022/09/27 07:52:40;;;;;;;61.63;37.67;;;;;;;13.98;100.00;98487.30;1739294;82;20243;-73
2022/09/27 07:55:26;;;;;;;53.00;31.52;;;;;;;13.99;100.00;98490.81;1727547;82;21219;-68
2022/09/27 07:58:07;;;;;;;51.20;28.87;;;;;;;13.96;100.00;98489.50;1740256;82;21048;-71
2022/09/27 08:00:35;;;;;;;39.10;27.85;;;;;;;13.95;100.00;98486.56;1740653;82;21020;-69
2022/09/27 08:03:06;;;;;;;34.65;23.12;;;;;;;14.00;100.00;98482.16;1727769;82;21035;-71
2022/09/27 08:05:35;;;;;;;43.70;25.48;;;;;;;13.97;100.00;98478.13;1688255;83;21589;-70
2022/09/27 08:08:03;;;;;;;36.73;22.85;;;;;;;13.94;100.00;98466.04;1707867;83;21558;-71
2022/09/27 08:10:32;;;;;;;36.35;24.25;;;;;;;13.93;100.00;98464.43;1710359;83;21041;-68
2022/09/27 08:13:03;;;;;;;39.78;23.47;;;;;;;13.95;100.00;98455.48;1710761;83;20985;-71
2022/09/27 08:15:32;;;;;;;41.53;25.05;;;;;;;13.98;100.00;98450.81;1683853;83;21543;-69
2022/09/27 08:17:58;;;;;;;37.85;25.88;;;;;;;14.13;100.00;98459.16;1711264;83;21441;-70
2022/09/27 08:20:27;;;;;;;39.27;26.00;;;;;;;14.23;100.00;98457.59;1735160;81;21144;-73
2022/09/27 08:22:58;;;;;;;40.70;24.23;;;;;;;14.32;100.00;98461.17;1739589;82;21079;-69
2022/09/27 08:25:33;;;;;;;32.45;23.85;;;;;;;14.39;100.00;98471.59;1714391;82;21540;-70
2022/09/27 08:28:21;;;;;;;47.75;35.03;;;;;;;14.44;100.00;98467.42;1629193;85;21618;-72
2022/09/27 08:30:50;;;;;;;29.52;23.92;;;;;;;14.51;100.00;98474.58;1617029;88;21122;-70
2022/09/27 08:33:18;;;;;;;35.83;25.90;;;;;;;14.53;100.00;98477.77;1673261;82;21015;-70
2022/09/27 08:35:45;;;;;;;30.50;24.00;;;;;;;14.54;100.00;98476.66;1733149;82;21075;-70
2022/09/27 08:38:12;;;;;;;29.30;23.07;;;;;;;14.57;100.00;98477.97;1729139;82;21027;-72
2022/09/27 08:41:00;;;;;;;27.00;22.30;;;;;;;14.62;100.00;98475.95;1713320;82;20993;-73
2022/09/27 08:43:55;;;;;;;30.72;21.40;;;;;;;14.66;100.00;98474.23;1740416;82;21046;-70
2022/09/27 08:46:44;;;;;;;29.87;21.45;;;;;;;14.65;100.00;98481.30;1740977;82;22196;-70
2022/09/27 08:49:24;;;;;;;22.40;19.00;;;;;;;14.67;100.00;98473.69;1739183;81;20999;-70
2022/09/27 08:51:52;;;;;;;25.23;19.07;;;;;;;14.65;100.00;98475.88;1734092;82;21001;-72
2022/09/27 08:54:28;;;;;;;23.00;18.00;;;;;;;14.66;100.00;98468.02;1728402;82;21119;-71
2022/09/27 08:57:02;;;;;;;27.65;21.25;;;;;;;14.69;100.00;98464.14;1733621;82;21069;-71
2022/09/27 08:59:37;;;;;;;25.43;20.88;;;;;;;14.65;100.00;98466.41;1724171;82;21378;-72
2022/09/27 09:02:04;;;;;;;26.30;23.02;;;;;;;14.67;100.00;98463.66;1729293;82;21090;-70
2022/09/27 09:04:37;;;;;;;25.02;21.75;;;;;;;14.71;100.00;98461.14;1733870;82;21020;-70
2022/09/27 09:07:34;;;;;;;22.55;20.05;;;;;;;14.73;100.00;98461.61;1733854;82;21084;-76
2022/09/27 09:13:18;;;;;;;19.10;16.17;;;;;;;14.78;100.00;98458.78;1727030;82;21140;-72
2022/09/27 09:16:12;;;;;;;17.42;15.23;;;;;;;14.81;100.00;98454.13;1732600;82;21727;-72
2022/09/27 09:19:05;;;;;;;21.90;18.45;;;;;;;14.82;100.00;98457.06;1733388;82;20960;-71
2022/09/27 09:21:57;;;;;;;20.95;16.82;;;;;;;14.83;100.00;98456.77;1733292;82;21017;-72
2022/09/27 09:24:52;;;;;;;18.77;16.95;;;;;;;14.86;100.00;98458.62;1732243;82;21056;-73
2022/09/27 09:27:46;;;;;;;17.92;16.15;;;;;;;14.92;100.00;98450.60;1734083;81;21839;-74
2022/09/27 09:30:24;;;;;;;19.57;17.35;;;;;;;14.97;100.00;98444.52;1733729;82;20971;-74
2022/09/27 09:33:26;;;;;;;20.10;16.60;;;;;;;14.99;100.00;98446.92;1733313;82;21576;-69
2022/09/27 09:36:12;;;;;;;23.67;16.67;;;;;;;15.02;100.00;98442.23;1733526;82;21052;-77
2022/09/27 09:38:53;;;;;;;19.23;16.25;;;;;;;14.99;100.00;98448.27;1733355;82;21092;-71
2022/09/27 09:41:25;;;;;;;16.25;14.75;;;;;;;15.07;100.00;98448.32;1733716;81;21809;-72
2022/09/27 09:44:24;;;;;;;17.37;15.57;;;;;;;15.17;100.00;98445.91;1733997;82;21023;-73
2022/09/27 09:46:54;;;;;;;17.25;15.48;;;;;;;15.20;100.00;98450.14;1685736;85;21058;-68
2022/09/27 09:49:39;;;;;;;18.20;15.93;;;;;;;15.24;100.00;98451.70;1716032;83;21052;-71
2022/09/27 09:52:18;;;;;;;17.07;15.28;;;;;;;15.29;100.00;98461.05;1700478;84;21105;-70
2022/09/27 09:54:55;;;;;;;18.30;14.83;;;;;;;15.32;100.00;98460.97;1716628;83;21498;-72
2022/09/27 09:57:32;;;;;;;17.70;15.78;;;;;;;15.34;100.00;98460.92;1716394;83;21539;-71
2022/09/27 10:00:03;;;;;;;18.70;16.70;;;;;;;15.38;100.00;98438.06;1728997;82;20991;-73
2022/09/27 10:02:39;;;;;;;18.65;16.75;;;;;;;15.42;100.00;98434.97;1702135;84;20949;-66
2022/09/27 10:05:15;;;;;;;20.08;17.23;;;;;;;15.47;100.00;98431.58;1720690;83;22265;-68
2022/09/27 10:07:42;;;;;;;18.55;16.67;;;;;;;15.50;100.00;98440.42;1720740;83;21091;-67
2022/09/27 10:10:14;;;;;;;19.98;17.35;;;;;;;15.49;100.00;98444.23;1701799;84;20985;-67
2022/09/27 10:12:41;;;;;;;21.27;18.95;;;;;;;15.47;100.00;98452.45;1707726;83;21046;-68
2022/09/27 10:15:21;;;;;;;21.00;18.35;;;;;;;15.49;100.00;98446.95;1719087;83;22293;-69
2022/09/27 10:17:52;;;;;;;21.90;18.95;;;;;;;15.57;100.00;98444.08;1701704;84;21047;-67
2022/09/27 10:20:42;;;;;;;19.95;17.70;;;;;;;15.60;100.00;98440.73;1701857;84;22451;-69
2022/09/27 10:23:18;;;;;;;24.23;21.70;;;;;;;15.69;100.00;98432.88;1739170;82;21000;-69
2022/09/27 10:26:00;;;;;;;23.98;21.55;;;;;;;15.78;100.00;98438.32;1722499;82;21063;-70
2022/09/27 10:28:37;;;;;;;20.45;18.32;;;;;;;15.87;100.00;98438.37;1709906;83;22213;-71
2022/09/27 10:31:10;;;;;;;25.15;20.55;;;;;;;15.90;100.00;98440.44;1703684;82;21109;-71
2022/09/27 10:33:58;;;;;;;25.15;22.48;;;;;;;15.85;100.00;98431.89;1727591;82;21103;-71
2022/09/27 10:36:28;;;;;;;21.68;19.02;;;;;;;15.87;100.00;98429.69;1727173;82;21011;-69
2022/09/27 10:39:03;;;;;;;24.18;20.45;;;;;;;15.83;100.00;98418.39;1740806;82;21540;-73
2022/09/27 10:41:37;;;;;;;20.25;17.85;;;;;;;15.79;100.00;98417.44;1729165;82;21555;-70
2022/09/27 10:44:20;;;;;;;19.37;17.23;;;;;;;15.76;100.00;98407.23;1715413;82;21476;-69
2022/09/27 10:46:54;;;;;;;21.55;19.32;;;;;;;15.73;100.00;98405.93;1725561;82;21150;-72
2022/09/27 10:49:35;;;;;;;27.90;22.53;;;;;;;15.75;100.00;98404.27;1689332;83;21095;-75
2022/09/27 10:52:08;;;;;;;30.88;25.25;;;;;;;15.71;100.00;98408.17;1713636;82;21086;-81
2022/09/27 10:54:36;;;;;;;27.70;22.77;;;;;;;15.68;100.00;98418.30;1684493;84;21588;-74
2022/09/27 10:57:18;;;;;;;31.87;26.62;;;;;;;15.68;100.00;98418.30;1710192;83;21587;-77
2022/09/27 11:00:05;;;;;;;32.05;25.32;;;;;;;15.74;100.00;98416.22;1748083;81;22245;-66
2022/09/27 11:02:35;;;;;;;29.02;25.85;;;;;;;15.87;100.00;98416.13;1748041;81;20975;-71
2022/09/27 11:05:16;;;;;;;37.40;27.17;;;;;;;16.01;100.00;98426.84;1744018;81;20994;-73
2022/09/27 11:07:57;;;;;;;35.78;27.07;;;;;;;16.09;100.00;98420.63;1718560;82;21596;-69
2022/09/27 11:10:34;;;;;;;34.30;27.70;;;;;;;16.11;100.00;98426.55;1730551;82;21047;-72
2022/09/27 11:13:16;;;;;;;49.45;42.83;;;;;;;16.01;100.00;98422.77;1732826;82;21094;-74
2022/09/27 11:16:16;;;;;;;34.65;28.62;;;;;;;15.98;100.00;98417.41;1735400;82;21047;-70
2022/09/27 11:19:08;;;;;;;30.35;25.23;;;;;;;15.97;100.00;98414.45;1739249;82;21529;-74
2022/09/27 11:22:12;;;;;;;31.52;26.57;;;;;;;15.96;100.00;98414.23;1723323;82;21020;-69
2022/09/27 11:25:30;;;;;;;38.50;27.67;;;;;;;15.94;100.00;98405.59;1731205;81;21001;-69
2022/09/27 11:28:39;;;;;;;34.65;29.07;;;;;;;15.93;100.00;98404.55;1746318;81;21248;-68
2022/09/27 11:31:23;;;;;;;37.73;28.87;;;;;;;16.03;100.00;98405.61;1737383;81;21016;-71
2022/09/27 11:34:06;;;;;;;32.42;27.77;;;;;;;16.02;100.00;98398.03;1745794;81;21043;-71
2022/09/27 11:36:54;;;;;;;32.95;27.52;;;;;;;16.03;100.00;98395.56;1744719;80;21039;-67
2022/09/27 11:40:06;;;;;;;37.83;26.62;;;;;;;16.10;100.00;98389.68;1745920;81;21148;-70
2022/09/27 11:43:00;;;;;;;30.02;21.48;;;;;;;16.14;100.00;98390.08;1745052;82;21143;-70
2022/09/27 11:46:05;;;;;;;32.13;25.97;;;;;;;16.10;100.00;98373.41;1734108;82;20963;-71
2022/09/27 11:48:41;;;;;;;26.42;20.15;;;;;;;16.00;100.00;98359.59;1747742;82;21047;-70
2022/09/27 11:51:32;;;;;;;31.62;26.73;;;;;;;15.96;100.00;98354.57;1718395;83;21181;-69
2022/09/27 11:54:24;;;;;;;32.90;26.52;;;;;;;15.93;100.00;98367.39;1659075;85;21037;-72